EZY5JA EGSS-LIMJ
Flight info
| Callsign | EZY5JA |
|---|---|
| Flight time | 1h 48m |
| Altitude | 23000 |
| Route | NUGBO M183 SILVA Q41 COWLY L612 MID/N0458F350 UL612 OGULO DCT OKASI DCT OKEKO DCT MOU DCT MADIV DCT MOKIP DCT TUFTA DCT GEVEA/N0465F330 DCT MOBLO DCT LURAG DCT OBUXA DCT TOP/N0403F190 M730 TESTO |
| Aircraft | A320/M-SDE3FGHIRWY/LB1 |
Departure
| Time | 2026-04-15 10:29 |
|---|---|
| Airport | London Stansted Airport (EGSS) |
Arrival
| Time | 2026-04-15 12:17 |
|---|---|
| Airport | Genoa Cristoforo Colombo Airport (LIMJ) |
| Time | Latitude | Longitude | Altitude | Speed | Heading |
|---|---|---|---|---|---|
| 2026-04-15 10:09 | 51.89002 | 0.25745 | 349 ft | 0 kts | 43° |
| 2026-04-15 10:20 | 51.88986 | 0.25715 | 352 ft | 4 kts | 59° |
| 2026-04-15 10:21 | 51.88974 | 0.25683 | 356 ft | 4 kts | 6° |
| 2026-04-15 10:21 | 51.88979 | 0.25673 | 350 ft | 0 kts | 313° |
| 2026-04-15 10:24 | 51.88983 | 0.25667 | 349 ft | 5 kts | 314° |
| 2026-04-15 10:24 | 51.89018 | 0.25610 | 354 ft | 7 kts | 316° |
| 2026-04-15 10:25 | 51.89048 | 0.25555 | 353 ft | 7 kts | 311° |
| 2026-04-15 10:25 | 51.89087 | 0.25487 | 355 ft | 12 kts | 313° |
| 2026-04-15 10:25 | 51.89141 | 0.25393 | 355 ft | 11 kts | 313° |
| 2026-04-15 10:25 | 51.89187 | 0.25296 | 354 ft | 14 kts | 303° |
| 2026-04-15 10:26 | 51.89258 | 0.25189 | 359 ft | 12 kts | 5° |
| 2026-04-15 10:26 | 51.89324 | 0.25227 | 351 ft | 4 kts | 329° |
| 2026-04-15 10:26 | 51.89326 | 0.25223 | 351 ft | 3 kts | 319° |
| 2026-04-15 10:26 | 51.89386 | 0.25191 | 348 ft | 10 kts | 341° |
| 2026-04-15 10:27 | 51.89428 | 0.25131 | 347 ft | 0 kts | 314° |
| 2026-04-15 10:27 | 51.89471 | 0.25058 | 347 ft | 17 kts | 313° |
| 2026-04-15 10:27 | 51.89498 | 0.24995 | 337 ft | 2 kts | 285° |
| 2026-04-15 10:28 | 51.89471 | 0.24935 | 337 ft | 0 kts | 223° |
| 2026-04-15 10:28 | 51.89469 | 0.24932 | 336 ft | 1 kts | 223° |
| 2026-04-15 10:28 | 51.89424 | 0.24865 | 336 ft | 34 kts | 222° |
| 2026-04-15 10:28 | 51.89023 | 0.24314 | 349 ft | 114 kts | 226° |
| 2026-04-15 10:29 | 51.88308 | 0.23157 | 405 ft | 169 kts | 223° |
| 2026-04-15 10:29 | 51.87477 | 0.21823 | 1214 ft | 168 kts | 220° |
| 2026-04-15 10:29 | 51.86616 | 0.20531 | 1841 ft | 174 kts | 219° |
| 2026-04-15 10:29 | 51.85662 | 0.19126 | 2128 ft | 198 kts | 220° |
| 2026-04-15 10:30 | 51.84582 | 0.17534 | 2508 ft | 222 kts | 220° |
| 2026-04-15 10:30 | 51.83465 | 0.15655 | 3045 ft | 241 kts | 237° |
| 2026-04-15 10:30 | 51.83071 | 0.12986 | 3764 ft | 257 kts | 270° |
| 2026-04-15 10:30 | 51.83696 | 0.10257 | 3965 ft | 268 kts | 304° |
| 2026-04-15 10:31 | 51.85226 | 0.08501 | 4006 ft | 278 kts | 339° |
| 2026-04-15 10:31 | 51.87136 | 0.07937 | 4013 ft | 282 kts | 354° |
| 2026-04-15 10:31 | 51.89108 | 0.07818 | 4008 ft | 284 kts | 357° |
| 2026-04-15 10:31 | 51.91077 | 0.07733 | 4006 ft | 283 kts | 355° |
| 2026-04-15 10:32 | 51.93046 | 0.07527 | 4454 ft | 285 kts | 353° |
| 2026-04-15 10:32 | 51.95023 | 0.07182 | 5385 ft | 286 kts | 350° |
| 2026-04-15 10:32 | 51.96933 | 0.06365 | 6285 ft | 284 kts | 327° |
| 2026-04-15 10:32 | 51.98323 | 0.04249 | 7141 ft | 277 kts | 296° |
| 2026-04-15 10:33 | 51.98878 | 0.01329 | 8059 ft | 271 kts | 268° |
| 2026-04-15 10:33 | 51.98539 | -0.01627 | 8893 ft | 268 kts | 246° |
| 2026-04-15 10:33 | 51.97846 | -0.04452 | 9735 ft | 271 kts | 246° |
| 2026-04-15 10:33 | 51.97222 | -0.07370 | 10357 ft | 281 kts | 253° |
| 2026-04-15 10:34 | 51.96749 | -0.10578 | 10588 ft | 304 kts | 256° |
| 2026-04-15 10:34 | 51.96290 | -0.14062 | 10756 ft | 327 kts | 257° |
| 2026-04-15 10:34 | 51.95818 | -0.17804 | 10918 ft | 348 kts | 257° |
| 2026-04-15 10:34 | 51.95344 | -0.21584 | 11394 ft | 357 kts | 257° |
| 2026-04-15 10:35 | 51.94828 | -0.25669 | 12070 ft | 361 kts | 257° |
| 2026-04-15 10:35 | 51.94314 | -0.29668 | 12740 ft | 364 kts | 257° |
| 2026-04-15 10:35 | 51.93788 | -0.33691 | 13405 ft | 367 kts | 256° |
| 2026-04-15 10:35 | 51.93252 | -0.37756 | 14026 ft | 370 kts | 256° |
| 2026-04-15 10:36 | 51.92711 | -0.41840 | 14587 ft | 373 kts | 256° |
| 2026-04-15 10:36 | 51.92163 | -0.45972 | 15149 ft | 376 kts | 256° |
| 2026-04-15 10:36 | 51.91608 | -0.50132 | 15727 ft | 379 kts | 256° |
| 2026-04-15 10:36 | 51.91047 | -0.54321 | 16302 ft | 382 kts | 256° |
| 2026-04-15 10:37 | 51.90481 | -0.58551 | 16841 ft | 385 kts | 257° |
| 2026-04-15 10:37 | 51.89910 | -0.62806 | 17378 ft | 388 kts | 257° |
| 2026-04-15 10:37 | 51.89332 | -0.67091 | 17857 ft | 391 kts | 257° |
| 2026-04-15 10:37 | 51.88747 | -0.71406 | 18364 ft | 394 kts | 257° |
| 2026-04-15 10:38 | 51.88156 | -0.75751 | 18822 ft | 396 kts | 257° |
| 2026-04-15 10:38 | 51.87560 | -0.80114 | 19302 ft | 398 kts | 257° |
| 2026-04-15 10:38 | 51.86961 | -0.84498 | 19782 ft | 400 kts | 257° |
| 2026-04-15 10:38 | 51.86338 | -0.88900 | 20235 ft | 402 kts | 253° |
| 2026-04-15 10:39 | 51.85274 | -0.93078 | 20670 ft | 404 kts | 241° |
| 2026-04-15 10:39 | 51.83615 | -0.96745 | 21089 ft | 407 kts | 228° |
| 2026-04-15 10:39 | 51.81435 | -0.99712 | 21503 ft | 413 kts | 215° |
| 2026-04-15 10:39 | 51.78847 | -1.01769 | 21912 ft | 419 kts | 201° |
| 2026-04-15 10:40 | 51.75982 | -1.02819 | 22298 ft | 426 kts | 192° |
| 2026-04-15 10:40 | 51.73045 | -1.03574 | 22651 ft | 429 kts | 192° |
| 2026-04-15 10:40 | 51.70090 | -1.04319 | 22971 ft | 432 kts | 191° |
| 2026-04-15 10:40 | 51.67048 | -1.04371 | 23026 ft | 447 kts | 175° |
| 2026-04-15 10:41 | 51.64003 | -1.02987 | 23025 ft | 464 kts | 161° |
| 2026-04-15 10:41 | 51.61012 | -1.00927 | 23031 ft | 470 kts | 160° |
| 2026-04-15 10:41 | 51.58013 | -0.98820 | 23027 ft | 472 kts | 160° |
| 2026-04-15 10:41 | 51.55007 | -0.96695 | 23026 ft | 472 kts | 160° |
| 2026-04-15 10:42 | 51.52032 | -0.94599 | 23029 ft | 473 kts | 160° |
| 2026-04-15 10:42 | 51.49020 | -0.92488 | 23031 ft | 474 kts | 160° |
| 2026-04-15 10:42 | 51.45989 | -0.90377 | 23031 ft | 474 kts | 160° |
| 2026-04-15 10:42 | 51.42961 | -0.88279 | 23046 ft | 474 kts | 160° |
| 2026-04-15 10:43 | 51.39929 | -0.86187 | 23052 ft | 474 kts | 160° |
| 2026-04-15 10:43 | 51.36894 | -0.84096 | 23052 ft | 475 kts | 160° |
| 2026-04-15 10:43 | 51.33857 | -0.82007 | 23046 ft | 475 kts | 160° |
| 2026-04-15 10:43 | 51.30819 | -0.79915 | 23045 ft | 475 kts | 160° |
| 2026-04-15 10:44 | 51.27781 | -0.77822 | 23040 ft | 475 kts | 160° |
| 2026-04-15 10:44 | 51.24738 | -0.75729 | 23038 ft | 477 kts | 160° |
| 2026-04-15 10:44 | 51.21670 | -0.73622 | 23058 ft | 483 kts | 160° |
| 2026-04-15 10:44 | 51.18580 | -0.71501 | 23057 ft | 484 kts | 160° |
| 2026-04-15 10:45 | 51.15489 | -0.69381 | 23056 ft | 485 kts | 160° |
| 2026-04-15 10:45 | 51.12382 | -0.67257 | 23056 ft | 486 kts | 160° |
| 2026-04-15 10:45 | 51.09276 | -0.65139 | 23058 ft | 486 kts | 160° |
| 2026-04-15 10:45 | 51.06180 | -0.62964 | 23062 ft | 488 kts | 156° |
| 2026-04-15 10:46 | 51.03250 | -0.60224 | 23066 ft | 491 kts | 148° |
| 2026-04-15 10:46 | 51.00416 | -0.57174 | 23075 ft | 492 kts | 148° |
| 2026-04-15 10:46 | 50.97578 | -0.54128 | 23075 ft | 492 kts | 148° |
| 2026-04-15 10:46 | 50.94736 | -0.51090 | 23070 ft | 492 kts | 148° |
| 2026-04-15 10:47 | 50.91889 | -0.48060 | 23070 ft | 493 kts | 148° |
| 2026-04-15 10:47 | 50.89043 | -0.45044 | 23064 ft | 492 kts | 148° |
| 2026-04-15 10:47 | 50.86189 | -0.42027 | 23063 ft | 492 kts | 149° |
| 2026-04-15 10:47 | 50.83340 | -0.39017 | 23063 ft | 492 kts | 148° |
| 2026-04-15 10:48 | 50.80488 | -0.36005 | 23063 ft | 493 kts | 148° |
| 2026-04-15 10:48 | 50.77632 | -0.32992 | 23054 ft | 493 kts | 148° |
| 2026-04-15 10:48 | 50.74778 | -0.29984 | 23056 ft | 493 kts | 148° |
| 2026-04-15 10:48 | 50.71921 | -0.26976 | 23056 ft | 493 kts | 148° |
| 2026-04-15 10:49 | 50.69066 | -0.23976 | 23060 ft | 494 kts | 148° |
| 2026-04-15 10:49 | 50.66202 | -0.20972 | 23063 ft | 494 kts | 148° |
| 2026-04-15 10:49 | 50.63376 | -0.18011 | 23062 ft | 494 kts | 148° |
| 2026-04-15 10:49 | 50.60510 | -0.15011 | 23064 ft | 495 kts | 148° |
| 2026-04-15 10:50 | 50.57606 | -0.11970 | 23074 ft | 495 kts | 148° |
| 2026-04-15 10:50 | 50.54774 | -0.09006 | 23074 ft | 495 kts | 148° |
| 2026-04-15 10:50 | 50.51900 | -0.06008 | 23074 ft | 496 kts | 148° |
| 2026-04-15 10:50 | 50.49020 | -0.03016 | 23079 ft | 496 kts | 148° |
| 2026-04-15 10:51 | 50.46143 | -0.00034 | 23081 ft | 496 kts | 148° |
| 2026-04-15 10:51 | 50.43258 | 0.02955 | 23082 ft | 497 kts | 148° |
| 2026-04-15 10:51 | 50.40372 | 0.05944 | 23082 ft | 497 kts | 148° |
| 2026-04-15 10:51 | 50.37483 | 0.08934 | 23087 ft | 497 kts | 148° |
| 2026-04-15 10:52 | 50.34595 | 0.11922 | 23090 ft | 498 kts | 148° |
| 2026-04-15 10:52 | 50.31701 | 0.14907 | 23091 ft | 498 kts | 148° |
| 2026-04-15 10:52 | 50.28799 | 0.17892 | 23094 ft | 499 kts | 148° |
| 2026-04-15 10:52 | 50.25898 | 0.20871 | 23094 ft | 499 kts | 148° |
| 2026-04-15 10:53 | 50.22995 | 0.23849 | 23100 ft | 499 kts | 148° |
| 2026-04-15 10:53 | 50.20087 | 0.26834 | 23097 ft | 500 kts | 148° |
| 2026-04-15 10:53 | 50.17219 | 0.29782 | 23096 ft | 500 kts | 148° |
| 2026-04-15 10:53 | 50.14316 | 0.32769 | 23104 ft | 501 kts | 148° |
| 2026-04-15 10:54 | 50.11407 | 0.35760 | 23106 ft | 501 kts | 148° |
| 2026-04-15 10:54 | 50.08496 | 0.38750 | 23104 ft | 501 kts | 148° |
| 2026-04-15 10:54 | 50.05586 | 0.41732 | 23103 ft | 502 kts | 148° |
| 2026-04-15 10:54 | 50.02665 | 0.44715 | 23103 ft | 502 kts | 148° |
| 2026-04-15 10:55 | 49.99745 | 0.47690 | 23112 ft | 502 kts | 148° |
| 2026-04-15 10:55 | 49.96824 | 0.50668 | 23109 ft | 503 kts | 148° |
| 2026-04-15 10:55 | 49.93897 | 0.53654 | 23111 ft | 503 kts | 147° |
| 2026-04-15 10:55 | 49.90966 | 0.56638 | 23108 ft | 503 kts | 147° |
| 2026-04-15 10:56 | 49.89027 | 0.58607 | 23111 ft | 503 kts | 147° |
| 2026-04-15 10:56 | 49.86100 | 0.61594 | 23106 ft | 504 kts | 145° |
| 2026-04-15 10:56 | 49.83338 | 0.64932 | 23107 ft | 504 kts | 141° |
| 2026-04-15 10:56 | 49.80615 | 0.68371 | 23108 ft | 505 kts | 141° |
| 2026-04-15 10:57 | 49.77889 | 0.71808 | 23116 ft | 505 kts | 141° |
| 2026-04-15 10:57 | 49.72434 | 0.78667 | 23113 ft | 506 kts | 141° |
| 2026-04-15 10:57 | 49.69694 | 0.82098 | 23117 ft | 506 kts | 141° |
| 2026-04-15 10:58 | 49.66953 | 0.85529 | 23120 ft | 507 kts | 141° |
| 2026-04-15 10:58 | 49.64214 | 0.88949 | 23126 ft | 507 kts | 141° |
| 2026-04-15 10:58 | 49.61463 | 0.92376 | 23128 ft | 508 kts | 141° |
| 2026-04-15 10:58 | 49.58719 | 0.95790 | 23137 ft | 508 kts | 141° |
| 2026-04-15 10:59 | 49.55997 | 0.99178 | 23140 ft | 509 kts | 141° |
| 2026-04-15 10:59 | 49.53240 | 1.02605 | 23145 ft | 509 kts | 141° |
| 2026-04-15 10:59 | 49.50479 | 1.06027 | 23147 ft | 509 kts | 141° |
| 2026-04-15 10:59 | 49.47720 | 1.09443 | 23150 ft | 509 kts | 141° |
| 2026-04-15 11:00 | 49.44964 | 1.12854 | 23160 ft | 509 kts | 141° |
| 2026-04-15 11:00 | 49.42197 | 1.16271 | 23161 ft | 509 kts | 141° |
| 2026-04-15 11:00 | 49.39429 | 1.19679 | 23160 ft | 510 kts | 141° |
| 2026-04-15 11:00 | 49.36661 | 1.23081 | 23160 ft | 510 kts | 141° |
| 2026-04-15 11:01 | 49.33897 | 1.26474 | 23156 ft | 509 kts | 141° |
| 2026-04-15 11:01 | 49.31134 | 1.29873 | 23243 ft | 509 kts | 140° |
| 2026-04-15 11:01 | 49.28369 | 1.33287 | 23143 ft | 510 kts | 140° |
| 2026-04-15 11:01 | 49.25604 | 1.36684 | 23168 ft | 510 kts | 140° |
| 2026-04-15 11:02 | 49.22830 | 1.40069 | 23169 ft | 510 kts | 141° |
| 2026-04-15 11:02 | 49.20055 | 1.43433 | 23181 ft | 509 kts | 141° |
| 2026-04-15 11:02 | 49.17275 | 1.46797 | 23180 ft | 509 kts | 141° |
| 2026-04-15 11:02 | 49.14500 | 1.50160 | 23181 ft | 509 kts | 141° |
| 2026-04-15 11:03 | 49.11764 | 1.53483 | 23178 ft | 508 kts | 141° |
| 2026-04-15 11:03 | 49.09006 | 1.56831 | 23182 ft | 507 kts | 141° |
| 2026-04-15 11:03 | 49.06236 | 1.60188 | 23182 ft | 507 kts | 141° |
| 2026-04-15 11:03 | 49.03473 | 1.63531 | 23182 ft | 507 kts | 141° |
| 2026-04-15 11:04 | 49.00717 | 1.66861 | 23183 ft | 507 kts | 141° |
| 2026-04-15 11:04 | 48.97951 | 1.70198 | 23190 ft | 506 kts | 141° |
| 2026-04-15 11:04 | 48.95187 | 1.73528 | 23193 ft | 506 kts | 141° |
| 2026-04-15 11:04 | 48.92424 | 1.76855 | 23196 ft | 505 kts | 141° |
| 2026-04-15 11:05 | 48.89673 | 1.80164 | 23194 ft | 505 kts | 141° |
| 2026-04-15 11:05 | 48.86914 | 1.83473 | 23203 ft | 505 kts | 141° |
| 2026-04-15 11:05 | 48.84151 | 1.86776 | 23202 ft | 504 kts | 141° |
| 2026-04-15 11:05 | 48.81394 | 1.90063 | 23203 ft | 504 kts | 141° |
| 2026-04-15 11:06 | 48.78636 | 1.93349 | 23199 ft | 503 kts | 141° |
| 2026-04-15 11:06 | 48.76033 | 1.96784 | 23202 ft | 502 kts | 136° |
| 2026-04-15 11:06 | 48.73471 | 2.00385 | 23202 ft | 502 kts | 135° |
| 2026-04-15 11:06 | 48.70938 | 2.04024 | 23203 ft | 501 kts | 135° |
| 2026-04-15 11:07 | 48.68419 | 2.07688 | 23200 ft | 501 kts | 135° |
| 2026-04-15 11:07 | 48.65913 | 2.11342 | 23199 ft | 501 kts | 135° |
| 2026-04-15 11:07 | 48.63400 | 2.14986 | 23197 ft | 501 kts | 135° |
| 2026-04-15 11:07 | 48.60881 | 2.18609 | 23201 ft | 500 kts | 135° |
| 2026-04-15 11:08 | 48.58354 | 2.22223 | 23193 ft | 500 kts | 135° |
| 2026-04-15 11:08 | 48.55817 | 2.25827 | 23198 ft | 500 kts | 135° |
| 2026-04-15 11:08 | 48.53281 | 2.29421 | 23197 ft | 500 kts | 135° |
| 2026-04-15 11:08 | 48.50747 | 2.33006 | 23193 ft | 500 kts | 135° |
| 2026-04-15 11:09 | 48.48212 | 2.36593 | 23193 ft | 500 kts | 135° |
| 2026-04-15 11:09 | 48.45675 | 2.40182 | 23194 ft | 499 kts | 135° |
| 2026-04-15 11:09 | 48.43145 | 2.43759 | 23200 ft | 499 kts | 135° |
| 2026-04-15 11:09 | 48.40616 | 2.47338 | 23200 ft | 499 kts | 135° |
| 2026-04-15 11:10 | 48.38084 | 2.50918 | 23198 ft | 499 kts | 135° |
| 2026-04-15 11:10 | 48.35551 | 2.54495 | 23206 ft | 498 kts | 135° |
| 2026-04-15 11:10 | 48.33022 | 2.58059 | 23206 ft | 498 kts | 135° |
| 2026-04-15 11:10 | 48.30491 | 2.61616 | 23210 ft | 498 kts | 136° |
| 2026-04-15 11:11 | 48.27955 | 2.65169 | 23205 ft | 498 kts | 136° |
| 2026-04-15 11:11 | 48.25423 | 2.68709 | 23210 ft | 497 kts | 136° |
| 2026-04-15 11:11 | 48.22922 | 2.72198 | 23215 ft | 497 kts | 136° |
| 2026-04-15 11:11 | 48.20393 | 2.75723 | 23217 ft | 497 kts | 136° |
| 2026-04-15 11:12 | 48.17862 | 2.79253 | 23211 ft | 497 kts | 136° |
| 2026-04-15 11:12 | 48.15335 | 2.82776 | 23216 ft | 496 kts | 136° |
| 2026-04-15 11:12 | 48.12800 | 2.86302 | 23218 ft | 496 kts | 136° |
| 2026-04-15 11:12 | 48.10271 | 2.89815 | 23217 ft | 496 kts | 136° |
| 2026-04-15 11:13 | 48.07742 | 2.93321 | 23215 ft | 496 kts | 136° |
| 2026-04-15 11:13 | 48.05210 | 2.96825 | 23220 ft | 495 kts | 136° |
| 2026-04-15 11:13 | 48.02682 | 3.00317 | 23218 ft | 495 kts | 136° |
| 2026-04-15 11:13 | 48.00155 | 3.03802 | 23225 ft | 495 kts | 136° |
| 2026-04-15 11:14 | 47.97624 | 3.07287 | 23218 ft | 494 kts | 136° |
| 2026-04-15 11:14 | 47.95097 | 3.10771 | 23222 ft | 494 kts | 136° |
| 2026-04-15 11:14 | 47.92577 | 3.14245 | 23222 ft | 494 kts | 136° |
| 2026-04-15 11:14 | 47.90051 | 3.17722 | 23222 ft | 493 kts | 136° |
| 2026-04-15 11:15 | 47.87533 | 3.21185 | 23217 ft | 493 kts | 136° |
| 2026-04-15 11:15 | 47.85001 | 3.24656 | 23219 ft | 493 kts | 136° |
| 2026-04-15 11:15 | 47.82475 | 3.28110 | 23220 ft | 493 kts | 136° |
| 2026-04-15 11:15 | 47.79952 | 3.31554 | 23223 ft | 493 kts | 136° |
| 2026-04-15 11:16 | 47.77423 | 3.35000 | 23219 ft | 492 kts | 136° |
| 2026-04-15 11:16 | 47.74893 | 3.38443 | 23218 ft | 492 kts | 136° |
| 2026-04-15 11:16 | 47.72366 | 3.41877 | 23219 ft | 492 kts | 136° |
| 2026-04-15 11:16 | 47.69840 | 3.45306 | 23219 ft | 492 kts | 136° |
| 2026-04-15 11:17 | 47.67317 | 3.48723 | 23213 ft | 492 kts | 136° |
| 2026-04-15 11:17 | 47.64785 | 3.52142 | 23215 ft | 492 kts | 136° |
| 2026-04-15 11:17 | 47.62293 | 3.55508 | 23213 ft | 491 kts | 136° |
| 2026-04-15 11:17 | 47.59766 | 3.58919 | 23217 ft | 491 kts | 137° |
| 2026-04-15 11:18 | 47.57237 | 3.62333 | 23210 ft | 491 kts | 136° |
| 2026-04-15 11:18 | 47.54709 | 3.65742 | 23210 ft | 491 kts | 136° |
| 2026-04-15 11:18 | 47.52151 | 3.69186 | 23211 ft | 491 kts | 137° |
| 2026-04-15 11:18 | 47.49653 | 3.72546 | 23208 ft | 491 kts | 137° |
| 2026-04-15 11:19 | 47.47095 | 3.75981 | 23209 ft | 491 kts | 137° |
| 2026-04-15 11:19 | 47.44567 | 3.79369 | 23215 ft | 491 kts | 137° |
| 2026-04-15 11:19 | 47.42069 | 3.82711 | 23219 ft | 490 kts | 137° |
| 2026-04-15 11:19 | 47.39507 | 3.86129 | 23220 ft | 490 kts | 137° |
| 2026-04-15 11:20 | 47.36973 | 3.89503 | 23217 ft | 490 kts | 137° |
| 2026-04-15 11:20 | 47.34443 | 3.92867 | 23221 ft | 490 kts | 137° |
| 2026-04-15 11:20 | 47.31914 | 3.96226 | 23222 ft | 489 kts | 137° |
| 2026-04-15 11:20 | 47.29384 | 3.99586 | 23227 ft | 489 kts | 137° |
| 2026-04-15 11:21 | 47.26862 | 4.02936 | 23217 ft | 489 kts | 137° |
| 2026-04-15 11:21 | 47.24339 | 4.06288 | 23217 ft | 488 kts | 137° |
| 2026-04-15 11:21 | 47.21849 | 4.09592 | 23225 ft | 488 kts | 137° |
| 2026-04-15 11:21 | 47.19294 | 4.12970 | 22976 ft | 488 kts | 139° |
| 2026-04-15 11:22 | 47.16780 | 4.16288 | 23150 ft | 484 kts | 139° |
| 2026-04-15 11:22 | 47.14267 | 4.19600 | 23229 ft | 487 kts | 139° |
| 2026-04-15 11:22 | 47.11745 | 4.22920 | 23238 ft | 487 kts | 139° |
| 2026-04-15 11:22 | 47.09242 | 4.26212 | 23236 ft | 487 kts | 139° |
| 2026-04-15 11:23 | 47.06725 | 4.29517 | 23237 ft | 486 kts | 139° |
| 2026-04-15 11:23 | 47.04206 | 4.32821 | 23239 ft | 486 kts | 139° |
| 2026-04-15 11:23 | 47.01685 | 4.36120 | 23239 ft | 485 kts | 139° |
| 2026-04-15 11:23 | 46.99160 | 4.39419 | 23236 ft | 485 kts | 139° |
| 2026-04-15 11:24 | 46.96643 | 4.42706 | 23235 ft | 485 kts | 139° |
| 2026-04-15 11:24 | 46.94121 | 4.45994 | 23228 ft | 485 kts | 139° |
| 2026-04-15 11:24 | 46.91604 | 4.49269 | 23227 ft | 484 kts | 139° |
| 2026-04-15 11:24 | 46.89084 | 4.52541 | 23225 ft | 484 kts | 139° |
| 2026-04-15 11:25 | 46.86564 | 4.55807 | 23219 ft | 484 kts | 139° |
| 2026-04-15 11:25 | 46.84045 | 4.59078 | 23225 ft | 484 kts | 139° |
| 2026-04-15 11:25 | 46.81524 | 4.62355 | 23220 ft | 484 kts | 139° |
| 2026-04-15 11:25 | 46.79008 | 4.65620 | 23218 ft | 484 kts | 139° |
| 2026-04-15 11:26 | 46.76491 | 4.68877 | 23214 ft | 484 kts | 139° |
| 2026-04-15 11:26 | 46.73966 | 4.72135 | 23216 ft | 484 kts | 139° |
| 2026-04-15 11:26 | 46.71443 | 4.75382 | 23213 ft | 484 kts | 139° |
| 2026-04-15 11:26 | 46.68913 | 4.78632 | 23215 ft | 484 kts | 139° |
| 2026-04-15 11:27 | 46.66390 | 4.81875 | 23215 ft | 485 kts | 139° |
| 2026-04-15 11:27 | 46.63862 | 4.85121 | 23216 ft | 485 kts | 139° |
| 2026-04-15 11:27 | 46.61332 | 4.88362 | 23207 ft | 485 kts | 139° |
| 2026-04-15 11:27 | 46.58795 | 4.91606 | 23207 ft | 485 kts | 139° |
| 2026-04-15 11:28 | 46.56262 | 4.94840 | 23206 ft | 485 kts | 139° |
| 2026-04-15 11:28 | 46.53728 | 4.98077 | 23204 ft | 485 kts | 139° |
| 2026-04-15 11:28 | 46.51190 | 5.01316 | 23205 ft | 485 kts | 138° |
| 2026-04-15 11:28 | 46.48693 | 5.04595 | 23206 ft | 484 kts | 134° |
| 2026-04-15 11:29 | 46.46513 | 5.08307 | 23205 ft | 484 kts | 125° |
| 2026-04-15 11:29 | 46.44771 | 5.12468 | 23210 ft | 483 kts | 115° |
| 2026-04-15 11:29 | 46.43523 | 5.16911 | 23214 ft | 481 kts | 106° |
| 2026-04-15 11:29 | 46.42646 | 5.21594 | 23215 ft | 481 kts | 103° |
| 2026-04-15 11:30 | 46.41793 | 5.26280 | 23216 ft | 481 kts | 104° |
| 2026-04-15 11:30 | 46.40925 | 5.30968 | 23215 ft | 481 kts | 104° |
| 2026-04-15 11:30 | 46.40049 | 5.35643 | 23217 ft | 481 kts | 104° |
| 2026-04-15 11:30 | 46.39167 | 5.40319 | 23218 ft | 481 kts | 104° |
| 2026-04-15 11:31 | 46.38290 | 5.44991 | 23221 ft | 481 kts | 104° |
| 2026-04-15 11:31 | 46.37418 | 5.49667 | 23218 ft | 480 kts | 104° |
| 2026-04-15 11:31 | 46.36548 | 5.54338 | 23222 ft | 480 kts | 104° |
| 2026-04-15 11:31 | 46.35689 | 5.58951 | 23218 ft | 480 kts | 104° |
| 2026-04-15 11:32 | 46.34818 | 5.63617 | 23220 ft | 480 kts | 104° |
| 2026-04-15 11:32 | 46.33944 | 5.68279 | 23218 ft | 480 kts | 104° |
| 2026-04-15 11:32 | 46.33070 | 5.72939 | 23222 ft | 479 kts | 103° |
| 2026-04-15 11:32 | 46.32193 | 5.77589 | 23222 ft | 479 kts | 104° |
| 2026-04-15 11:33 | 46.31313 | 5.82240 | 23226 ft | 479 kts | 104° |
| 2026-04-15 11:33 | 46.30433 | 5.86887 | 23226 ft | 479 kts | 104° |
| 2026-04-15 11:33 | 46.29552 | 5.91527 | 23230 ft | 479 kts | 104° |
| 2026-04-15 11:33 | 46.28669 | 5.96166 | 23230 ft | 479 kts | 104° |
| 2026-04-15 11:34 | 46.27781 | 6.00800 | 23230 ft | 478 kts | 104° |
| 2026-04-15 11:34 | 46.26886 | 6.05433 | 23231 ft | 478 kts | 105° |
| 2026-04-15 11:34 | 46.25697 | 6.09933 | 23229 ft | 480 kts | 114° |
| 2026-04-15 11:34 | 46.24019 | 6.14111 | 23226 ft | 482 kts | 123° |
| 2026-04-15 11:35 | 46.21889 | 6.17867 | 23225 ft | 484 kts | 133° |
| 2026-04-15 11:35 | 46.19446 | 6.21220 | 23225 ft | 485 kts | 136° |
| 2026-04-15 11:35 | 46.16976 | 6.24529 | 23222 ft | 485 kts | 136° |
| 2026-04-15 11:35 | 46.14532 | 6.27799 | 23222 ft | 485 kts | 136° |
| 2026-04-15 11:36 | 46.12057 | 6.31105 | 23215 ft | 485 kts | 136° |
| 2026-04-15 11:36 | 46.09578 | 6.34409 | 23209 ft | 485 kts | 136° |
| 2026-04-15 11:36 | 46.07097 | 6.37709 | 23205 ft | 485 kts | 136° |
| 2026-04-15 11:36 | 46.04617 | 6.41005 | 23203 ft | 485 kts | 136° |
| 2026-04-15 11:37 | 46.02132 | 6.44308 | 23200 ft | 485 kts | 135° |
| 2026-04-15 11:37 | 45.99648 | 6.47606 | 23197 ft | 485 kts | 135° |
| 2026-04-15 11:37 | 45.97165 | 6.50900 | 23196 ft | 486 kts | 135° |
| 2026-04-15 11:37 | 45.94680 | 6.54190 | 23188 ft | 485 kts | 136° |
| 2026-04-15 11:38 | 45.92196 | 6.57473 | 23179 ft | 485 kts | 135° |
| 2026-04-15 11:38 | 45.89713 | 6.60752 | 23168 ft | 485 kts | 135° |
| 2026-04-15 11:38 | 45.87226 | 6.64030 | 23163 ft | 485 kts | 135° |
| 2026-04-15 11:38 | 45.84736 | 6.67308 | 23163 ft | 485 kts | 135° |
| 2026-04-15 11:39 | 45.82248 | 6.70583 | 23160 ft | 486 kts | 135° |
| 2026-04-15 11:39 | 45.80597 | 6.72759 | 23160 ft | 486 kts | 135° |
| 2026-04-15 11:39 | 45.77303 | 6.77086 | 23161 ft | 486 kts | 135° |
| 2026-04-15 11:39 | 45.74807 | 6.80348 | 23156 ft | 486 kts | 136° |
| 2026-04-15 11:40 | 45.72302 | 6.83608 | 23156 ft | 486 kts | 136° |
| 2026-04-15 11:40 | 45.70609 | 6.85805 | 23157 ft | 486 kts | 136° |
| 2026-04-15 11:40 | 45.68104 | 6.89048 | 23161 ft | 486 kts | 136° |
| 2026-04-15 11:40 | 45.65598 | 6.92292 | 23165 ft | 486 kts | 136° |
| 2026-04-15 11:41 | 45.63101 | 6.95532 | 23164 ft | 485 kts | 136° |
| 2026-04-15 11:41 | 45.60597 | 6.98776 | 23166 ft | 485 kts | 135° |
| 2026-04-15 11:41 | 45.58094 | 7.02011 | 23172 ft | 486 kts | 135° |
| 2026-04-15 11:41 | 45.55587 | 7.05249 | 23169 ft | 486 kts | 135° |
| 2026-04-15 11:42 | 45.53234 | 7.08603 | 23167 ft | 483 kts | 128° |
| 2026-04-15 11:42 | 45.51234 | 7.12427 | 23164 ft | 480 kts | 120° |
| 2026-04-15 11:42 | 45.49482 | 7.16470 | 23173 ft | 479 kts | 119° |
| 2026-04-15 11:42 | 45.47721 | 7.20516 | 23173 ft | 480 kts | 119° |
| 2026-04-15 11:43 | 45.45951 | 7.24549 | 23170 ft | 480 kts | 119° |
| 2026-04-15 11:43 | 45.44176 | 7.28575 | 23170 ft | 480 kts | 119° |
| 2026-04-15 11:43 | 45.42395 | 7.32594 | 23179 ft | 480 kts | 121° |
| 2026-04-15 11:43 | 45.40344 | 7.36362 | 23176 ft | 484 kts | 129° |
| 2026-04-15 11:44 | 45.37895 | 7.39657 | 23172 ft | 486 kts | 139° |
| 2026-04-15 11:44 | 45.35168 | 7.42519 | 23172 ft | 487 kts | 142° |
| 2026-04-15 11:44 | 45.32422 | 7.45341 | 23167 ft | 487 kts | 142° |
| 2026-04-15 11:44 | 45.29681 | 7.48164 | 23165 ft | 487 kts | 141° |
| 2026-04-15 11:45 | 45.26935 | 7.50996 | 23165 ft | 487 kts | 141° |
| 2026-04-15 11:45 | 45.24196 | 7.53822 | 23162 ft | 487 kts | 141° |
| 2026-04-15 11:45 | 45.21452 | 7.56647 | 23164 ft | 487 kts | 141° |
| 2026-04-15 11:45 | 45.18702 | 7.59471 | 23167 ft | 487 kts | 141° |
| 2026-04-15 11:46 | 45.15990 | 7.62251 | 23160 ft | 487 kts | 141° |
| 2026-04-15 11:46 | 45.13242 | 7.65063 | 23194 ft | 487 kts | 141° |
| 2026-04-15 11:46 | 45.10492 | 7.67873 | 23196 ft | 487 kts | 141° |
| 2026-04-15 11:46 | 45.07740 | 7.70684 | 23191 ft | 487 kts | 141° |
| 2026-04-15 11:47 | 45.04993 | 7.73490 | 23193 ft | 487 kts | 141° |
| 2026-04-15 11:47 | 45.02241 | 7.76299 | 23194 ft | 487 kts | 141° |
| 2026-04-15 11:47 | 44.99486 | 7.79110 | 23196 ft | 487 kts | 141° |
| 2026-04-15 11:47 | 44.96736 | 7.81909 | 23189 ft | 487 kts | 141° |
| 2026-04-15 11:48 | 44.94128 | 7.84939 | 23189 ft | 484 kts | 133° |
| 2026-04-15 11:48 | 44.91884 | 7.88444 | 23186 ft | 480 kts | 124° |
| 2026-04-15 11:48 | 44.90043 | 7.92352 | 23187 ft | 476 kts | 116° |
| 2026-04-15 11:48 | 44.88411 | 7.96414 | 23183 ft | 476 kts | 116° |
| 2026-04-15 11:49 | 44.86777 | 8.00466 | 23178 ft | 476 kts | 116° |
| 2026-04-15 11:49 | 44.85138 | 8.04524 | 23183 ft | 476 kts | 116° |
| 2026-04-15 11:49 | 44.83498 | 8.08564 | 23179 ft | 476 kts | 117° |
| 2026-04-15 11:49 | 44.81848 | 8.12618 | 23181 ft | 476 kts | 117° |
| 2026-04-15 11:50 | 44.80201 | 8.16661 | 23181 ft | 476 kts | 117° |
| 2026-04-15 11:50 | 44.78555 | 8.20701 | 23182 ft | 476 kts | 117° |
| 2026-04-15 11:50 | 44.76910 | 8.24738 | 23179 ft | 476 kts | 117° |
| 2026-04-15 11:50 | 44.75286 | 8.28726 | 23178 ft | 476 kts | 117° |
| 2026-04-15 11:51 | 44.73638 | 8.32761 | 23177 ft | 476 kts | 117° |
| 2026-04-15 11:51 | 44.71987 | 8.36788 | 23176 ft | 476 kts | 117° |
| 2026-04-15 11:51 | 44.70335 | 8.40820 | 23174 ft | 476 kts | 117° |
| 2026-04-15 11:51 | 44.68679 | 8.44854 | 23166 ft | 476 kts | 117° |
| 2026-04-15 11:52 | 44.67024 | 8.48879 | 23165 ft | 476 kts | 117° |
| 2026-04-15 11:52 | 44.65363 | 8.52905 | 23149 ft | 476 kts | 117° |
| 2026-04-15 11:52 | 44.63704 | 8.56924 | 23140 ft | 476 kts | 118° |
| 2026-04-15 11:52 | 44.62044 | 8.60943 | 23127 ft | 476 kts | 118° |
| 2026-04-15 11:53 | 44.60237 | 8.64828 | 23111 ft | 478 kts | 127° |
| 2026-04-15 11:53 | 44.57856 | 8.68104 | 23102 ft | 482 kts | 141° |
| 2026-04-15 11:53 | 44.55052 | 8.70704 | 23089 ft | 483 kts | 146° |
| 2026-04-15 11:53 | 44.52203 | 8.73194 | 23080 ft | 483 kts | 148° |
| 2026-04-15 11:54 | 44.49116 | 8.75064 | 22883 ft | 483 kts | 164° |
| 2026-04-15 11:54 | 44.45806 | 8.75530 | 22074 ft | 478 kts | 183° |
| 2026-04-15 11:54 | 44.42562 | 8.74651 | 21268 ft | 473 kts | 198° |
| 2026-04-15 11:54 | 44.39585 | 8.72785 | 20761 ft | 462 kts | 211° |
| 2026-04-15 11:55 | 44.37065 | 8.70248 | 20598 ft | 430 kts | 223° |
| 2026-04-15 11:55 | 44.35122 | 8.67281 | 20458 ft | 399 kts | 236° |
| 2026-04-15 11:55 | 44.33779 | 8.64058 | 20342 ft | 371 kts | 249° |
| 2026-04-15 11:55 | 44.32987 | 8.60760 | 20199 ft | 346 kts | 260° |
| 2026-04-15 11:56 | 44.32658 | 8.57542 | 19787 ft | 332 kts | 270° |
| 2026-04-15 11:56 | 44.32739 | 8.54357 | 19248 ft | 325 kts | 281° |
| 2026-04-15 11:56 | 44.33198 | 8.51299 | 18675 ft | 319 kts | 290° |
| 2026-04-15 11:56 | 44.33999 | 8.48432 | 18074 ft | 315 kts | 300° |
| 2026-04-15 11:57 | 44.35097 | 8.45819 | 17458 ft | 309 kts | 308° |
| 2026-04-15 11:57 | 44.38024 | 8.41577 | 16292 ft | 300 kts | 325° |
| 2026-04-15 11:57 | 44.39708 | 8.39870 | 15736 ft | 297 kts | 328° |
| 2026-04-15 11:58 | 44.41435 | 8.38307 | 15195 ft | 294 kts | 330° |
| 2026-04-15 11:58 | 44.43173 | 8.36807 | 14659 ft | 293 kts | 331° |
| 2026-04-15 11:58 | 44.44908 | 8.35324 | 14140 ft | 291 kts | 331° |
| 2026-04-15 11:58 | 44.46627 | 8.33845 | 13587 ft | 289 kts | 330° |
| 2026-04-15 11:59 | 44.48326 | 8.32369 | 13002 ft | 287 kts | 331° |
| 2026-04-15 11:59 | 44.50012 | 8.30888 | 12438 ft | 285 kts | 330° |
| 2026-04-15 11:59 | 44.51724 | 8.29536 | 11892 ft | 281 kts | 336° |
| 2026-04-15 11:59 | 44.53523 | 8.28507 | 11348 ft | 277 kts | 345° |
| 2026-04-15 12:00 | 44.55381 | 8.27879 | 10819 ft | 273 kts | 353° |
| 2026-04-15 12:00 | 44.57262 | 8.27650 | 10314 ft | 270 kts | 2° |
| 2026-04-15 12:00 | 44.59125 | 8.27816 | 10166 ft | 269 kts | 10° |
| 2026-04-15 12:00 | 44.60920 | 8.28480 | 10156 ft | 264 kts | 27° |
| 2026-04-15 12:01 | 44.62372 | 8.29976 | 10165 ft | 258 kts | 49° |
| 2026-04-15 12:01 | 44.63259 | 8.32135 | 10162 ft | 257 kts | 72° |
| 2026-04-15 12:01 | 44.63442 | 8.34622 | 10166 ft | 259 kts | 95° |
| 2026-04-15 12:01 | 44.62931 | 8.37047 | 10170 ft | 261 kts | 109° |
| 2026-04-15 12:02 | 44.62248 | 8.39416 | 10172 ft | 262 kts | 110° |
| 2026-04-15 12:02 | 44.61567 | 8.41783 | 10159 ft | 261 kts | 110° |
| 2026-04-15 12:02 | 44.60901 | 8.44099 | 10154 ft | 253 kts | 109° |
| 2026-04-15 12:02 | 44.60252 | 8.46362 | 10147 ft | 247 kts | 109° |
| 2026-04-15 12:03 | 44.59618 | 8.48575 | 10146 ft | 241 kts | 109° |
| 2026-04-15 12:03 | 44.58998 | 8.50745 | 10138 ft | 239 kts | 109° |
| 2026-04-15 12:03 | 44.58382 | 8.52904 | 10072 ft | 237 kts | 109° |
| 2026-04-15 12:03 | 44.57771 | 8.55037 | 9842 ft | 234 kts | 109° |
| 2026-04-15 12:04 | 44.57172 | 8.57122 | 9700 ft | 226 kts | 109° |
| 2026-04-15 12:04 | 44.56593 | 8.59134 | 9332 ft | 221 kts | 109° |
| 2026-04-15 12:04 | 44.56026 | 8.61102 | 9108 ft | 213 kts | 110° |
| 2026-04-15 12:04 | 44.55472 | 8.63022 | 9107 ft | 211 kts | 110° |
| 2026-04-15 12:05 | 44.54921 | 8.64934 | 9105 ft | 212 kts | 109° |
| 2026-04-15 12:05 | 44.54371 | 8.66845 | 9102 ft | 211 kts | 109° |
| 2026-04-15 12:05 | 44.53812 | 8.68765 | 9081 ft | 213 kts | 112° |
| 2026-04-15 12:05 | 44.53113 | 8.70602 | 9083 ft | 214 kts | 120° |
| 2026-04-15 12:06 | 44.52214 | 8.72329 | 9093 ft | 230 kts | 127° |
| 2026-04-15 12:06 | 44.51068 | 8.73966 | 9092 ft | 239 kts | 137° |
| 2026-04-15 12:06 | 44.49722 | 8.75361 | 9088 ft | 242 kts | 146° |
| 2026-04-15 12:06 | 44.48290 | 8.76604 | 8996 ft | 241 kts | 145° |
| 2026-04-15 12:07 | 44.46872 | 8.77843 | 8653 ft | 240 kts | 146° |
| 2026-04-15 12:07 | 44.45459 | 8.79081 | 8330 ft | 240 kts | 145° |
| 2026-04-15 12:07 | 44.43999 | 8.80211 | 8029 ft | 241 kts | 155° |
| 2026-04-15 12:07 | 44.42368 | 8.80799 | 7762 ft | 243 kts | 172° |
| 2026-04-15 12:08 | 44.40680 | 8.80763 | 7510 ft | 244 kts | 187° |
| 2026-04-15 12:08 | 44.39053 | 8.80106 | 7240 ft | 245 kts | 203° |
| 2026-04-15 12:08 | 44.37565 | 8.78951 | 6964 ft | 245 kts | 210° |
| 2026-04-15 12:08 | 44.36116 | 8.77768 | 6770 ft | 241 kts | 210° |
| 2026-04-15 12:09 | 44.34684 | 8.76606 | 6555 ft | 231 kts | 210° |
| 2026-04-15 12:09 | 44.33328 | 8.75505 | 6272 ft | 224 kts | 210° |
| 2026-04-15 12:09 | 44.31993 | 8.74421 | 6035 ft | 220 kts | 210° |
| 2026-04-15 12:09 | 44.30665 | 8.73343 | 6010 ft | 220 kts | 210° |
| 2026-04-15 12:10 | 44.29338 | 8.72260 | 6011 ft | 221 kts | 212° |
| 2026-04-15 12:10 | 44.28207 | 8.70855 | 5789 ft | 217 kts | 235° |
| 2026-04-15 12:10 | 44.27561 | 8.68972 | 5387 ft | 215 kts | 258° |
| 2026-04-15 12:10 | 44.27474 | 8.66934 | 5017 ft | 209 kts | 282° |
| 2026-04-15 12:11 | 44.27817 | 8.64989 | 4638 ft | 206 kts | 290° |
| 2026-04-15 12:11 | 44.28192 | 8.63067 | 4313 ft | 204 kts | 290° |
| 2026-04-15 12:11 | 44.28750 | 8.61345 | 4116 ft | 187 kts | 313° |
| 2026-04-15 12:11 | 44.29702 | 8.60261 | 3982 ft | 169 kts | 338° |
| 2026-04-15 12:12 | 44.30799 | 8.59871 | 3758 ft | 158 kts | 359° |
| 2026-04-15 12:12 | 44.31862 | 8.60085 | 3212 ft | 155 kts | 15° |
| 2026-04-15 12:12 | 44.32906 | 8.60478 | 3027 ft | 158 kts | 14° |
| 2026-04-15 12:12 | 44.33969 | 8.60883 | 3020 ft | 160 kts | 16° |
| 2026-04-15 12:13 | 44.34953 | 8.61614 | 3020 ft | 162 kts | 34° |
| 2026-04-15 12:13 | 44.35729 | 8.62795 | 3021 ft | 168 kts | 53° |
| 2026-04-15 12:13 | 44.36291 | 8.64163 | 2984 ft | 156 kts | 55° |
| 2026-04-15 12:13 | 44.36814 | 8.65440 | 2580 ft | 150 kts | 54° |
| 2026-04-15 12:14 | 44.37334 | 8.66696 | 2122 ft | 150 kts | 54° |
| 2026-04-15 12:14 | 44.37852 | 8.67942 | 2027 ft | 150 kts | 54° |
| 2026-04-15 12:14 | 44.38410 | 8.69177 | 1969 ft | 150 kts | 50° |
| 2026-04-15 12:14 | 44.39037 | 8.70338 | 1874 ft | 149 kts | 45° |
| 2026-04-15 12:15 | 44.39739 | 8.71407 | 1797 ft | 148 kts | 41° |
| 2026-04-15 12:15 | 44.40485 | 8.72376 | 1689 ft | 147 kts | 42° |
| 2026-04-15 12:15 | 44.41156 | 8.73473 | 1443 ft | 149 kts | 46° |
| 2026-04-15 12:15 | 44.41782 | 8.74600 | 1161 ft | 146 kts | 51° |
| 2026-04-15 12:16 | 44.42214 | 8.75894 | 928 ft | 150 kts | 69° |
| 2026-04-15 12:16 | 44.42347 | 8.77352 | 641 ft | 154 kts | 85° |
| 2026-04-15 12:16 | 44.42223 | 8.78877 | 511 ft | 162 kts | 95° |
| 2026-04-15 12:16 | 44.41907 | 8.80422 | 268 ft | 167 kts | 100° |
| 2026-04-15 12:17 | 44.41610 | 8.81965 | 118 ft | 163 kts | 98° |
| 2026-04-15 12:17 | 44.41333 | 8.83456 | 22 ft | 145 kts | 100° |
| 2026-04-15 12:17 | 44.41174 | 8.84471 | 20 ft | 74 kts | 109° |
| 2026-04-15 12:17 | 44.41055 | 8.84970 | 19 ft | 33 kts | 106° |
| 2026-04-15 12:18 | 44.41063 | 8.85218 | 19 ft | 15 kts | 33° |
| 2026-04-15 12:18 | 44.41155 | 8.85259 | 21 ft | 14 kts | 13° |
| 2026-04-15 12:18 | 44.41256 | 8.85281 | 21 ft | 15 kts | 352° |
| 2026-04-15 12:18 | 44.41315 | 8.85167 | 22 ft | 16 kts | 285° |
| 2026-04-15 12:19 | 44.41339 | 8.85002 | 20 ft | 18 kts | 282° |
| 2026-04-15 12:19 | 44.41376 | 8.84835 | 22 ft | 11 kts | 308° |
| 2026-04-15 12:19 | 44.41398 | 8.84849 | 20 ft | 2 kts | 68° |
| 2026-04-15 12:19 | 44.41409 | 8.84874 | 20 ft | 7 kts | 57° |
| 2026-04-15 12:20 | 44.41430 | 8.84922 | 20 ft | 0 kts | 58° |